• Join FlightAware (Why Join?)
  • Login
  • US Flag 
01:29AM EDT


 

Airport Tracker/Info


-or-


 

Live Flight TrackerFlight Track Log ✈ N406TM ✈ 24-Feb-2014 ✈ KBNA - MMUN / CUN

Flight Track Log - Related Links

Times and Time Zones

All times are in EST time to prevent confusion due to time zone crossing. See the N406TM flight status page for this flight to view local times or setup timezone preferences in your user account.

Time Position Orientation Groundspeed Altitude Reporting Facility
EST Latitude Longitude Course Direction KTS MPH feet Rate Location/Type
10:38AM 36.1333 -86.6833 287° West 163 188 1,400  Level Nashville TRACON
10:39AM 36.1500 -86.7500 287° West 181 208 4,600 2,880 Climbing Nashville TRACON
10:39AM 36.1425 -86.7739 249° West 175 201 6,000 3,120 Climbing Memphis Center
10:40AM 36.0783 -86.8286 215° Southwest 236 272 9,600 3,360 Climbing Memphis Center
10:41AM 36.0136 -86.8781 212° Southwest 262 302 13,000 3,120 Climbing Memphis Center
10:42AM 35.9447 -86.9292 211° Southwest 280 322 16,100 2,460 Climbing Memphis Center
10:43AM 35.8761 -86.9811 212° Southwest 283 326 18,200 2,160 Climbing Memphis Center
10:44AM 35.8047 -87.0347 211° Southwest 293 337 20,600 2,160 Climbing Memphis Center
10:45AM 35.7317 -87.0919 212° Southwest 303 349 22,700 1,980 Climbing Memphis Center
10:46AM 35.6567 -87.1539 214° Southwest 316 364 24,700 1,980 Climbing Memphis Center
10:48AM 35.5697 -87.2022 204° Southwest 338 389 26,900 2,160 Climbing Memphis Center
10:49AM 35.4586 -87.2344 193° South 348 400 29,200 1,740 Climbing Memphis Center
10:50AM 35.3742 -87.2644 196° South 348 400 30,600 1,440 Climbing Memphis Center
10:51AM 35.2808 -87.2964 196° South 348 400 32,200 1,740 Climbing Memphis Center
10:52AM 35.1697 -87.3339 195° South 348 400 34,200 1,380 Climbing Memphis Center
10:53AM 35.0806 -87.3647 196° South 337 388 35,100 720 Climbing Memphis Center
10:54AM 34.9886 -87.3956 195° South 339 390 35,800 720 Climbing Memphis Center
10:55AM 34.8956 -87.4272 196° South 343 395 36,700 780 Climbing Memphis Center
10:56AM 34.8025 -87.4592 196° South 344 396 37,500 660 Climbing Memphis Center
10:57AM 34.7125 -87.4903 196° South 343 395 38,100 660 Climbing Memphis Center
10:58AM 34.6139 -87.5453 205° Southwest 330 380 38,900 660 Climbing Memphis Center
10:59AM 34.5353 -87.5908 206° Southwest 321 369 39,500 480 Climbing Memphis Center
11:00AM 34.4572 -87.6378 206° Southwest 316 364 40,000 240 Climbing Memphis Center
11:01AM 34.3831 -87.6792 205° Southwest 315 362 40,000  Level Memphis Center
11:02AM 34.2878 -87.7339 205° Southwest 315 362 40,000  Level Memphis Center
11:03AM 34.2058 -87.7806 205° Southwest 323 372 40,000  Level Memphis Center
11:04AM 34.1217 -87.8283 205° Southwest 329 379 40,000  Level Memphis Center
11:05AM 34.0361 -87.8778 206° Southwest 336 387 40,000  Level Memphis Center
11:06AM 33.9478 -87.9283 205° Southwest 344 396 40,000  Level Memphis Center
11:07AM 33.8431 -87.9878 205° Southwest 346 398 40,000  Level Memphis Center
11:08AM 33.7547 -88.0381 205° Southwest 347 399 40,000  Level Memphis Center
11:09AM 33.6656 -88.0878 205° Southwest 347 399 40,000  Level Memphis Center
11:10AM 33.5769 -88.1372 205° Southwest 348 400 40,000  Level Memphis Center
11:11AM 33.4775 -88.1650 193° South 356 410 40,000  Level Memphis Center
11:12AM 33.3572 -88.1994 193° South 366 421 40,000  Level Memphis Center
11:13AM 33.2589 -88.2261 193° South 366 421 40,000  Level Memphis Center
11:14AM 33.1664 -88.2672 200° South 362 417 40,000  Level Memphis Center
11:15AM 33.0758 -88.3117 202° Southwest 356 410 40,000  Level Memphis Center
11:17AM 32.9839 -88.3553 202° Southwest 356 410 40,000  Level Memphis Center
11:18AM 32.8917 -88.3997 202° Southwest 356 410 40,000  Level Memphis Center
11:19AM 32.7811 -88.4525 202° Southwest 356 410 40,000  Level Memphis Center
11:20AM 32.6900 -88.4961 202° Southwest 356 410 40,000  Level Memphis Center
11:21AM 32.5975 -88.5397 202° Southwest 356 410 40,000  Level Memphis Center
11:22AM 32.5039 -88.5850 202° Southwest 357 411 40,000  Level Memphis Center
11:23AM 32.4128 -88.6278 202° Southwest 357 411 40,000  Level Memphis Center
11:24AM 32.3014 -88.6803 202° Southwest 357 411 40,000  Level Memphis Center
11:25AM 32.2094 -88.7225 201° Southwest 357 411 40,000  Level Memphis Center
11:26AM 32.1172 -88.7658 202° Southwest 357 411 40,000  Level Memphis Center
11:27AM 32.0233 -88.8097 202° Southwest 358 412 40,000  Level Memphis Center
11:28AM 31.9194 -88.8597 202° Southwest 359 413 40,000  Level Memphis Center
11:29AM 31.8261 -88.9028 201° Southwest 359 413 40,000  Level Memphis Center
11:30AM 31.7331 -88.9478 202° Southwest 359 413 40,000  Level Memphis Center
11:31AM 31.6392 -88.9906 201° Southwest 362 417 40,000  Level Houston Center
11:32AM 31.5461 -89.0347 202° Southwest 363 418 40,000  Level Houston Center
11:33AM 31.4333 -89.0844 201° Southwest 361 415 40,000  Level Houston Center
11:34AM 31.3281 -89.0947 185° South 385 443 40,000  Level Houston Center
11:35AM 31.2228 -89.0972 181° South 386 444 40,000  Level Houston Center
11:36AM 31.1142 -89.1011 182° South 389 448 40,000  Level Houston Center
11:37AM 31.0069 -89.1047 182° South 387 445 40,000  Level Houston Center
11:38AM 30.8753 -89.1097 182° South 391 450 40,000  Level Houston Center
11:39AM 30.7675 -89.1136 182° South 388 447 40,000  Level Houston Center
11:40AM 30.6589 -89.1175 182° South 389 448 40,000  Level Houston Center
11:41AM 30.5486 -89.1208 181° South 392 451 40,000  Level Houston Center
11:42AM 30.4397 -89.1250 182° South 392 451 40,000  Level Houston Center
11:43AM 30.3300 -89.1286 182° South 390 449 40,000  Level Houston Center
11:44AM 30.2206 -89.1325 182° South 391 450 40,000  Level Houston Center
11:45AM 30.0881 -89.1364 181° South 393 452 40,000  Level Houston Center
11:46AM 29.9775 -89.1403 182° South 395 455 40,000  Level Houston Center
11:48AM 29.8669 -89.1444 182° South 395 455 40,000  Level Houston Center
11:49AM 29.7561 -89.1475 181° South 396 456 40,000 60 Level Houston Center
11:50AM 29.6453 -89.1514 182° South 397 457 40,200 300 Climbing Houston Center
11:51AM 29.5381 -89.1569 183° South 388 447 40,700 360 Climbing Houston Center
11:52AM 29.4133 -89.1603 181° South 376 433 41,000 120 Climbing Houston Center
11:53AM 29.3086 -89.1644 182° South 376 433 41,000  Level Houston Center
11:54AM 29.2028 -89.1681 182° South 378 435 41,000  Level Houston Center
11:55AM 29.0964 -89.1708 181° South 381 438 41,000  Level Houston Center
11:56AM 28.9894 -89.1747 182° South 383 441 41,000  Level Houston Center
11:57AM 28.8828 -89.1767 181° South 384 442 41,000  Level Houston Center
11:58AM 28.7528 -89.1814 182° South 388 447 41,000  Level Houston Center
11:59AM 28.6433 -89.1844 181° South 391 450 41,000  Level Houston Center
12:00PM 28.5356 -89.1886 182° South 388 447 41,000  Level Houston Center
12:01PM 28.4256 -89.1922 182° South 395 455 41,000  Level Houston Center
12:02PM 28.3153 -89.1947 181° South 396 456 41,000  Level Houston Center
12:03PM 28.2050 -89.1997 182° South 397 457 41,000  Level Houston Center
12:04PM 28.0728 -89.2033 181° South 397 457 41,000  Level Houston Center
12:05PM 27.9614 -89.2072 182° South 399 459 41,000  Level Houston Center
12:06PM 27.8497 -89.2103 181° South 401 461 41,000  Level Houston Center
12:07PM 27.7383 -89.2144 182° South 399 459 41,000  Level Houston Center
12:08PM 27.6261 -89.2169 181° South 401 461 41,000  Level Houston Center
12:09PM 27.4931 -89.2219 182° South 399 459 41,000  Level Houston Center
12:10PM 27.3808 -89.2267 182° South 401 461 41,000  Level Houston Center
12:11PM 27.2683 -89.2281 181° South 403 464 41,000  Level Houston Center
12:12PM 27.1572 -89.2314 182° South 401 461 41,000  Level Houston Center
12:14PM 27.0451 -89.2113 160° South  Level FlightAware Approximate
12:21PM 26.3739 -88.9405 160° South  Level FlightAware Approximate
12:22PM 26.2784 -88.9010 160° South  Level FlightAware Approximate
12:23PM 26.1826 -88.8621 160° South  Level FlightAware Approximate
12:24PM 26.0869 -88.8232 160° South  Level FlightAware Approximate
12:25PM 25.9911 -88.7843 160° South  Level FlightAware Approximate
12:26PM 25.8953 -88.7456 160° South  Level FlightAware Approximate
12:27PM 25.7995 -88.7068 160° South  Level FlightAware Approximate
12:28PM 25.7038 -88.6682 160° South  Level FlightAware Approximate
12:29PM 25.6079 -88.6298 160° South  Level FlightAware Approximate
12:30PM 25.5120 -88.5914 160° South  Level FlightAware Approximate
12:31PM 25.4161 -88.5531 160° South  Level FlightAware Approximate
12:32PM 25.3201 -88.5153 161° South  Level FlightAware Approximate
12:33PM 25.2239 -88.4781 161° South  Level FlightAware Approximate
12:34PM 25.1277 -88.4409 161° South  Level FlightAware Approximate
12:35PM 25.0315 -88.4038 161° South  Level FlightAware Approximate
12:36PM 24.9352 -88.3668 161° South  Level FlightAware Approximate
12:37PM 24.8390 -88.3298 161° South  Level FlightAware Approximate
12:38PM 24.7427 -88.2929 161° South  Level FlightAware Approximate
12:39PM 24.6465 -88.2560 161° South  Level FlightAware Approximate
12:40PM 24.5502 -88.2192 161° South  Level FlightAware Approximate
12:41PM 24.4541 -88.1818 160° South  Level FlightAware Approximate
12:42PM 24.3582 -88.1439 160° South  Level FlightAware Approximate
12:43PM 24.2623 -88.1061 160° South  Level FlightAware Approximate
12:44PM 24.1664 -88.0683 160° South  Level FlightAware Approximate
12:45PM 24.0704 -88.0305 160° South  Level FlightAware Approximate
12:46PM 23.9745 -87.9929 160° South  Level FlightAware Approximate
12:47PM 23.8786 -87.9552 160° South  Level FlightAware Approximate
12:48PM 23.7826 -87.9177 160° South  Level FlightAware Approximate
12:49PM 23.6866 -87.8801 160° South  Level FlightAware Approximate
12:50PM 23.5907 -87.8427 160° South  Level FlightAware Approximate
12:51PM 23.4951 -87.8041 159° South  Level FlightAware Approximate
12:52PM 23.3997 -87.7651 159° South  Level FlightAware Approximate
12:53PM 23.3042 -87.7262 159° South  Level FlightAware Approximate
12:54PM 23.2087 -87.6874 159° South  Level FlightAware Approximate
12:55PM 23.1132 -87.6488 162° South  Level FlightAware Approximate
12:56PM 23.0162 -87.6148 162° South  Level FlightAware Approximate
12:57PM 22.9192 -87.5808 162° South  Level FlightAware Approximate
12:58PM 22.8222 -87.5469 162° South  Level FlightAware Approximate
12:59PM 22.7278 -87.5056 155° Southeast  Level FlightAware Approximate
01:00PM 22.6337 -87.4635 160° South  Level FlightAware Approximate
01:01PM 22.5376 -87.4266 161° South  Level FlightAware Approximate
01:02PM 22.4413 -87.3905 161° South  Level FlightAware Approximate
01:03PM 22.3450 -87.3543 161° South  Level FlightAware Approximate
01:04PM 22.2487 -87.3182 161° South  Level FlightAware Approximate
01:05PM 22.1522 -87.2828 162° South  Level FlightAware Approximate
01:06PM 22.0556 -87.2479 162° South  Level FlightAware Approximate
01:07PM 21.9589 -87.2131 162° South  Level FlightAware Approximate
01:08PM 21.8622 -87.1783 162° South  Level FlightAware Approximate
01:09PM 21.7652 -87.1446 164° South  Level FlightAware Approximate
01:10PM 21.6670 -87.1151 164° South  Level FlightAware Approximate
01:11PM 21.5746 -87.0741 161° South  Level FlightAware Approximate
01:12PM 21.4780 -87.0389 161° South  Level FlightAware Approximate
01:13PM 21.3812 -87.0048 163° South  Level FlightAware Approximate
01:14PM 21.2838 -86.9724 163° South  Level FlightAware Approximate
01:15PM 21.1880 -86.9357 155° Southeast  Level FlightAware Approximate
01:16PM 21.0927 -86.8971 160° South  Level FlightAware Approximate
01:17PM 21.0365 -86.8771 160° South  Level Estimated
01:18PM 21.0365 -86.8771 160° South  Level Estimated
01:19PM 21.0365 -86.8771 160° South  Level Estimated
01:20PM 21.0365 -86.8771 160° South  Level Estimated
01:21PM 21.0365 -86.8771 160° South  Level Estimated
01:22PM 21.0365 -86.8771 160° South  Level Estimated
01:23PM 21.0365 -86.8771 160° South  Level Estimated
01:24PM 21.0365 -86.8771 160° South  Level Estimated
01:25PM 21.0365 -86.8771 160° South  Level Estimated
01:26PM 21.0365 -86.8771 160° South  Level Estimated
01:27PM 21.0365 -86.8771 160° South  Level Estimated
01:28PM 21.0365 -86.8771 160° South  Level Estimated
01:29PM 21.0365 -86.8771 160° South  Level Estimated
01:30PM 21.0365 -86.8771 160° South  Level Estimated